createdAt,value
2019-03-16T00:01:13.446Z,1.70
2019-03-16T00:03:42.417Z,2.13
2019-03-16T00:06:11.341Z,2.00
2019-03-16T00:08:40.206Z,2.90
2019-03-16T00:11:09.236Z,1.93
2019-03-16T00:13:38.310Z,2.37
2019-03-16T00:16:07.181Z,2.60
2019-03-16T00:18:36.260Z,2.93
2019-03-16T00:21:05.337Z,2.70
2019-03-16T00:23:34.236Z,2.57
2019-03-16T00:26:03.086Z,2.40
2019-03-16T00:28:31.942Z,2.00
2019-03-16T00:31:02.592Z,2.00
2019-03-16T00:33:31.505Z,2.20
2019-03-16T00:36:00.475Z,2.10
2019-03-16T00:38:29.479Z,2.20
2019-03-16T00:40:58.403Z,1.83
2019-03-16T00:43:27.398Z,2.60
2019-03-16T00:45:56.363Z,2.50
2019-03-16T00:48:25.301Z,2.23
2019-03-16T00:50:54.207Z,2.30
2019-03-16T00:53:23.507Z,2.10
2019-03-16T00:55:52.401Z,2.63
2019-03-16T00:58:21.318Z,2.70
2019-03-16T01:00:50.326Z,2.60
2019-03-16T01:03:19.153Z,2.07
2019-03-16T01:05:48.089Z,2.47
2019-03-16T01:08:17.026Z,2.53
2019-03-16T01:10:45.958Z,2.30
2019-03-16T01:13:14.865Z,2.43
2019-03-16T01:15:44.055Z,2.57
2019-03-16T01:18:12.915Z,2.43
2019-03-16T01:20:41.740Z,3.30
2019-03-16T01:23:10.647Z,2.40
2019-03-16T01:25:39.537Z,2.80
2019-03-16T01:28:08.710Z,2.60
2019-03-16T01:30:37.666Z,3.03
2019-03-16T01:33:06.498Z,1.87
2019-03-16T01:35:35.362Z,2.47
2019-03-16T01:38:04.258Z,2.00
2019-03-16T01:40:33.100Z,2.10
2019-03-16T01:43:02.242Z,2.80
2019-03-16T01:45:31.166Z,2.13
2019-03-16T01:48:00.000Z,2.00
2019-03-16T01:50:28.866Z,2.33
2019-03-16T01:52:57.807Z,3.00
2019-03-16T01:55:26.893Z,1.90
2019-03-16T01:57:55.696Z,1.77
2019-03-16T02:00:24.693Z,2.50
2019-03-16T02:02:55.887Z,2.10
2019-03-16T02:05:24.486Z,2.60
2019-03-16T02:07:53.484Z,2.13
2019-03-16T02:10:22.417Z,2.30
2019-03-16T02:12:51.575Z,2.90
2019-03-16T02:15:20.698Z,2.50
2019-03-16T02:17:49.761Z,2.57
2019-03-16T02:20:18.750Z,2.00
2019-03-16T02:22:47.641Z,2.50
2019-03-16T02:25:16.630Z,1.87
2019-03-16T02:27:45.573Z,2.63
2019-03-16T02:30:14.538Z,2.67
2019-03-16T02:32:43.456Z,2.80
2019-03-16T02:35:12.350Z,2.13
2019-03-16T02:37:41.260Z,2.10
2019-03-16T02:40:10.311Z,2.23
2019-03-16T02:42:39.198Z,4.50
2019-03-16T02:45:08.199Z,2.80
2019-03-16T02:47:37.023Z,4.47
2019-03-16T02:50:06.187Z,3.00
2019-03-16T02:52:35.132Z,3.13
2019-03-16T02:55:04.504Z,2.57
2019-03-16T02:57:33.439Z,3.20
2019-03-16T03:00:02.420Z,2.57
2019-03-16T03:02:31.353Z,2.80
2019-03-16T03:05:00.655Z,2.30
2019-03-16T03:07:29.808Z,3.40
2019-03-16T03:09:58.644Z,3.40
2019-03-16T03:12:27.464Z,3.20
2019-03-16T03:14:56.292Z,3.50
2019-03-16T03:17:25.200Z,2.80
2019-03-16T03:19:54.032Z,3.30
2019-03-16T03:22:22.991Z,3.20
2019-03-16T03:24:51.965Z,3.43
2019-03-16T03:27:20.889Z,2.40
2019-03-16T03:29:49.871Z,3.07
2019-03-16T03:32:18.697Z,2.30
2019-03-16T03:34:47.598Z,3.27
2019-03-16T03:37:16.528Z,2.77
2019-03-16T03:39:45.353Z,2.80
2019-03-16T03:42:14.247Z,3.57
2019-03-16T03:44:43.084Z,3.60
2019-03-16T03:47:12.020Z,2.40
2019-03-16T03:49:40.993Z,2.80
2019-03-16T03:52:09.899Z,3.07
2019-03-16T03:54:38.833Z,2.60
2019-03-16T03:57:07.715Z,1.93
2019-03-16T03:59:36.677Z,2.73
2019-03-16T04:02:05.670Z,3.00
2019-03-16T04:04:34.693Z,3.23
2019-03-16T04:07:03.621Z,2.07
2019-03-16T04:09:32.596Z,3.17
2019-03-16T04:12:01.425Z,2.43
2019-03-16T04:14:30.305Z,2.37
2019-03-16T04:16:59.128Z,3.00
2019-03-16T04:19:28.173Z,2.27
2019-03-16T04:21:57.470Z,2.63
2019-03-16T04:24:26.385Z,2.50
2019-03-16T04:26:55.258Z,2.47
2019-03-16T04:29:24.219Z,2.40
2019-03-16T04:31:53.172Z,2.90
2019-03-16T04:34:29.171Z,3.07
2019-03-16T04:36:52.739Z,3.37
2019-03-16T04:39:21.575Z,2.17
2019-03-16T04:41:50.461Z,2.53
2019-03-16T04:44:19.313Z,2.13
2019-03-16T04:46:48.280Z,2.87
2019-03-16T04:49:17.095Z,2.40
2019-03-16T04:51:45.933Z,2.70
2019-03-16T04:54:14.770Z,2.40
2019-03-16T04:56:43.694Z,3.90
2019-03-16T04:59:12.528Z,2.63
2019-03-16T05:01:41.372Z,2.77
2019-03-16T05:04:10.217Z,2.73
2019-03-16T05:06:39.034Z,2.93
2019-03-16T05:09:08.313Z,3.60
2019-03-16T05:11:37.172Z,2.83
2019-03-16T05:14:06.139Z,2.30
2019-03-16T05:16:35.014Z,3.83
2019-03-16T05:19:03.849Z,3.47
2019-03-16T05:21:32.673Z,3.07
2019-03-16T05:24:02.861Z,2.00
2019-03-16T05:26:32.334Z,2.63
2019-03-16T05:29:01.264Z,2.70
2019-03-16T05:31:30.112Z,2.87
2019-03-16T05:33:59.022Z,3.87
2019-03-16T05:36:27.914Z,3.63
2019-03-16T05:38:56.763Z,3.23
2019-03-16T05:41:25.609Z,3.07
2019-03-16T05:43:54.489Z,3.33
2019-03-16T05:46:23.451Z,3.90
2019-03-16T05:48:52.254Z,5.03
2019-03-16T05:51:21.246Z,4.10
2019-03-16T05:53:50.082Z,4.07
2019-03-16T05:56:18.897Z,3.80
2019-03-16T05:58:47.742Z,4.33
2019-03-16T06:01:16.561Z,3.67
2019-03-16T06:03:45.464Z,3.83
2019-03-16T06:06:14.355Z,4.33
2019-03-16T06:08:43.299Z,5.60
2019-03-16T06:11:12.141Z,4.40
2019-03-16T06:13:41.054Z,3.50
2019-03-16T06:16:09.987Z,4.00
2019-03-16T06:18:38.914Z,4.10
2019-03-16T06:21:07.869Z,4.40
2019-03-16T06:23:36.817Z,3.93
2019-03-16T06:26:05.770Z,5.00
2019-03-16T06:28:34.675Z,4.43
2019-03-16T06:31:03.498Z,5.10
2019-03-16T06:33:32.394Z,5.07
2019-03-16T06:36:01.336Z,4.67
2019-03-16T06:38:30.271Z,6.20
2019-03-16T06:40:59.116Z,5.50
2019-03-16T06:43:27.945Z,5.37
2019-03-16T06:45:56.903Z,5.60
2019-03-16T06:48:25.793Z,5.00
2019-03-16T06:50:54.629Z,5.83
2019-03-16T06:53:23.714Z,5.03
2019-03-16T06:55:52.849Z,4.87
2019-03-16T06:58:21.751Z,5.87
2019-03-16T07:00:50.822Z,5.03
2019-03-16T07:03:19.658Z,5.53
2019-03-16T07:05:48.641Z,5.97
2019-03-16T07:08:17.570Z,4.63
2019-03-16T07:10:46.517Z,5.73
2019-03-16T07:13:15.411Z,5.07
2019-03-16T07:15:45.275Z,5.87
2019-03-16T07:18:14.234Z,6.17
2019-03-16T07:20:43.127Z,5.30
2019-03-16T07:23:12.126Z,5.97
2019-03-16T07:25:41.009Z,6.97
2019-03-16T07:28:09.841Z,4.30
2019-03-16T07:30:38.768Z,5.63
2019-03-16T07:33:07.594Z,6.33
2019-03-16T07:35:36.519Z,5.93
2019-03-16T07:38:05.537Z,6.03
2019-03-16T07:40:34.359Z,6.20
2019-03-16T07:43:03.209Z,4.73
2019-03-16T07:45:32.197Z,5.30
2019-03-16T07:48:01.098Z,5.10
2019-03-16T07:50:30.006Z,6.17
2019-03-16T07:52:58.934Z,6.63
2019-03-16T07:55:27.909Z,6.13
2019-03-16T07:57:56.765Z,5.80
2019-03-16T08:00:25.755Z,4.23
2019-03-16T08:02:54.706Z,6.67
2019-03-16T08:05:23.724Z,4.77
2019-03-16T08:07:52.581Z,5.40
2019-03-16T08:10:21.509Z,5.53
2019-03-16T08:12:50.358Z,4.73
2019-03-16T08:15:19.449Z,4.80
2019-03-16T08:17:48.362Z,3.40
2019-03-16T08:20:17.333Z,4.60
2019-03-16T08:22:46.288Z,5.00
2019-03-16T08:25:15.182Z,3.57
2019-03-16T08:27:53.901Z,3.97
2019-03-16T08:30:14.933Z,4.57
2019-03-16T08:32:43.906Z,4.00
2019-03-16T08:35:13.056Z,4.97
2019-03-16T08:37:41.987Z,4.60
2019-03-16T08:40:10.931Z,4.70
2019-03-16T08:42:39.861Z,4.87
2019-03-16T08:45:08.976Z,5.40
2019-03-16T08:47:38.034Z,6.23
2019-03-16T08:50:07.102Z,4.90
2019-03-16T08:52:36.081Z,6.27
2019-03-16T08:55:05.374Z,5.73
2019-03-16T08:57:34.402Z,5.53
2019-03-16T09:00:03.944Z,6.00
2019-03-16T09:02:34.697Z,6.23
2019-03-16T09:05:04.662Z,5.97
2019-03-16T09:07:33.797Z,5.97
2019-03-16T09:10:02.821Z,5.07
2019-03-16T09:12:31.739Z,5.67
2019-03-16T09:15:00.586Z,4.93
2019-03-16T09:17:29.454Z,5.57
2019-03-16T09:19:58.335Z,6.10
2019-03-16T09:22:29.600Z,5.43
2019-03-16T09:24:57.925Z,4.50
2019-03-16T09:27:31.399Z,4.87
2019-03-16T09:29:57.609Z,5.13
2019-03-16T09:32:26.501Z,4.63
2019-03-16T09:34:55.470Z,5.47
2019-03-16T09:37:24.471Z,5.53
2019-03-16T09:39:53.389Z,5.30
2019-03-16T09:42:22.348Z,5.10
2019-03-16T09:44:51.422Z,5.00
2019-03-16T09:47:20.483Z,6.33
2019-03-16T09:49:49.491Z,5.77
2019-03-16T09:52:18.560Z,4.43
2019-03-16T09:54:47.497Z,4.43
2019-03-16T09:57:16.373Z,5.20
2019-03-16T09:59:45.486Z,3.53
2019-03-16T10:02:14.421Z,4.40
2019-03-16T10:04:43.313Z,4.30
2019-03-16T10:07:12.333Z,4.30
2019-03-16T10:09:41.204Z,4.10
2019-03-16T10:12:10.044Z,3.30
2019-03-16T10:14:39.011Z,4.73
2019-03-16T10:17:08.019Z,4.50
2019-03-16T10:19:36.933Z,4.17
2019-03-16T10:22:05.839Z,3.90
2019-03-16T10:24:34.735Z,3.80
2019-03-16T10:27:03.770Z,3.53
2019-03-16T10:29:32.658Z,4.20
2019-03-16T10:32:01.527Z,3.87
2019-03-16T10:34:30.389Z,3.90
2019-03-16T10:36:59.293Z,3.67
2019-03-16T10:39:28.255Z,5.00
2019-03-16T10:41:57.275Z,4.07
2019-03-16T10:44:26.249Z,3.73
2019-03-16T10:46:55.959Z,3.23
2019-03-16T10:49:24.949Z,4.70
2019-03-16T10:51:53.802Z,3.30
2019-03-16T10:54:22.678Z,3.40
2019-03-16T10:56:51.517Z,3.10
2019-03-16T10:59:20.424Z,3.90
2019-03-16T11:01:49.404Z,4.00
2019-03-16T11:04:18.264Z,3.00
2019-03-16T11:06:47.179Z,5.17
2019-03-16T11:09:16.264Z,2.80
2019-03-16T11:11:45.123Z,3.17
2019-03-16T11:14:13.995Z,2.70
2019-03-16T11:16:42.797Z,2.40
2019-03-16T11:19:11.645Z,3.10
2019-03-16T11:21:40.553Z,2.40
2019-03-16T11:24:09.414Z,2.70
2019-03-16T11:26:38.255Z,2.90
2019-03-16T11:29:09.266Z,3.10
2019-03-16T11:31:37.715Z,2.63
2019-03-16T11:34:06.595Z,2.50
2019-03-16T11:36:35.418Z,2.70
2019-03-16T11:39:06.687Z,2.13
2019-03-16T11:41:35.538Z,2.23
2019-03-16T11:44:04.941Z,2.00
2019-03-16T11:46:34.037Z,1.93
2019-03-16T11:49:02.866Z,2.50
2019-03-16T11:51:31.685Z,2.10
2019-03-16T11:54:00.532Z,1.73
2019-03-16T11:56:29.375Z,2.63
2019-03-16T11:58:58.283Z,2.43
2019-03-16T12:01:27.097Z,1.83
2019-03-16T12:03:55.914Z,1.93
2019-03-16T12:06:24.843Z,1.90
2019-03-16T12:08:53.867Z,1.80
2019-03-16T12:11:22.846Z,2.20
2019-03-16T12:13:51.686Z,2.30
2019-03-16T12:16:20.542Z,1.67
2019-03-16T12:18:49.344Z,2.60
2019-03-16T12:21:18.194Z,1.83
2019-03-16T12:23:47.087Z,2.00
2019-03-16T12:26:16.007Z,1.90
2019-03-16T12:28:44.929Z,2.70
2019-03-16T12:31:13.810Z,1.83
2019-03-16T12:33:42.791Z,1.67
2019-03-16T12:36:11.618Z,1.97
2019-03-16T12:38:40.439Z,2.00
2019-03-16T12:41:09.332Z,2.43
2019-03-16T12:43:38.234Z,2.13
2019-03-16T12:46:07.137Z,2.80
2019-03-16T12:48:35.970Z,1.87
2019-03-16T12:51:04.885Z,2.60
2019-03-16T12:53:33.702Z,2.43
2019-03-16T12:56:02.706Z,2.23
2019-03-16T12:58:31.762Z,2.23
2019-03-16T13:01:00.656Z,2.40
2019-03-16T13:03:29.586Z,2.37
2019-03-16T13:05:58.454Z,3.00
2019-03-16T13:08:27.450Z,2.10
2019-03-16T13:10:56.341Z,2.30
2019-03-16T13:13:25.186Z,2.33
2019-03-16T13:15:54.027Z,2.23
2019-03-16T13:18:22.991Z,2.73
2019-03-16T13:20:51.878Z,2.63
2019-03-16T13:23:20.751Z,2.77
2019-03-16T13:25:49.648Z,1.60
2019-03-16T13:28:18.490Z,2.47
2019-03-16T13:30:47.502Z,2.57
2019-03-16T13:33:16.522Z,1.90
2019-03-16T13:35:45.425Z,2.10
2019-03-16T13:38:14.317Z,2.10
2019-03-16T13:40:43.277Z,2.77
2019-03-16T13:43:12.273Z,2.07
2019-03-16T13:45:41.154Z,2.47
2019-03-16T13:48:10.070Z,2.00
2019-03-16T13:50:38.890Z,3.33
2019-03-16T13:53:08.081Z,2.50
2019-03-16T13:55:36.981Z,2.33
2019-03-16T13:58:05.820Z,2.10
2019-03-16T14:00:34.742Z,2.57
2019-03-16T14:03:04.007Z,2.47
2019-03-16T14:05:32.850Z,2.27
2019-03-16T14:08:01.833Z,2.13
2019-03-16T14:10:31.194Z,2.00
2019-03-16T14:13:00.038Z,2.63
2019-03-16T14:15:28.871Z,3.73
2019-03-16T14:17:58.326Z,2.50
2019-03-16T14:20:27.660Z,2.23
2019-03-16T14:22:56.942Z,2.60
2019-03-16T14:25:25.786Z,1.73
2019-03-16T14:27:54.660Z,2.00
2019-03-16T14:30:39.771Z,2.97
2019-03-16T14:32:54.314Z,2.00
2019-03-16T14:35:23.307Z,1.80
2019-03-16T14:37:52.238Z,2.27
2019-03-16T14:40:21.331Z,2.60
2019-03-16T14:42:50.314Z,2.10
2019-03-16T14:45:19.686Z,2.10
2019-03-16T14:47:48.533Z,1.60
2019-03-16T14:50:18.018Z,3.70
2019-03-16T14:52:46.854Z,2.23
2019-03-16T14:55:16.263Z,1.90
2019-03-16T14:57:45.164Z,2.83
2019-03-16T15:00:14.862Z,2.07
2019-03-16T15:02:46.083Z,1.93
2019-03-16T15:05:14.746Z,2.30
2019-03-16T15:07:43.644Z,2.40
2019-03-16T15:10:12.592Z,2.60
2019-03-16T15:12:41.501Z,2.80
2019-03-16T15:15:11.606Z,2.70
2019-03-16T15:17:40.520Z,2.33
2019-03-16T15:20:09.890Z,2.07
2019-03-16T15:22:38.785Z,3.43
2019-03-16T15:25:11.031Z,2.73
2019-03-16T15:27:38.444Z,2.80
2019-03-16T15:30:09.652Z,2.93
2019-03-16T15:32:38.666Z,2.20
2019-03-16T15:35:08.491Z,2.83
2019-03-16T15:37:37.491Z,3.40
2019-03-16T15:40:07.190Z,2.60
2019-03-16T15:42:36.164Z,2.90
2019-03-16T15:45:06.998Z,3.23
2019-03-16T15:47:35.922Z,2.87
2019-03-16T15:50:05.154Z,2.63
2019-03-16T15:52:37.311Z,3.40
2019-03-16T15:55:05.421Z,2.87
2019-03-16T15:57:34.411Z,2.20
2019-03-16T16:00:04.107Z,2.23
2019-03-16T16:02:33.136Z,2.50
2019-03-16T16:05:01.973Z,2.20
2019-03-16T16:07:30.824Z,2.90
2019-03-16T16:09:59.674Z,2.23
2019-03-16T16:12:28.684Z,2.50
2019-03-16T16:14:57.614Z,2.40
2019-03-16T16:17:26.448Z,2.73
2019-03-16T16:19:55.533Z,3.00
2019-03-16T16:22:24.453Z,2.60
2019-03-16T16:24:53.361Z,2.67
2019-03-16T16:27:24.106Z,1.70
2019-03-16T16:29:52.870Z,2.60
2019-03-16T16:32:21.775Z,2.43
2019-03-16T16:34:50.698Z,2.43
2019-03-16T16:37:19.625Z,3.03
2019-03-16T16:39:49.098Z,2.57
2019-03-16T16:42:17.990Z,2.90
2019-03-16T16:44:46.816Z,3.93
2019-03-16T16:47:15.778Z,2.70
2019-03-16T16:49:44.575Z,2.30
2019-03-16T16:52:13.469Z,2.40
2019-03-16T16:54:42.369Z,2.97
2019-03-16T16:57:11.339Z,2.60
2019-03-16T16:59:40.202Z,2.43
2019-03-16T17:02:09.092Z,2.87
2019-03-16T17:04:37.948Z,2.40
2019-03-16T17:07:06.841Z,2.67
2019-03-16T17:09:35.721Z,3.73
2019-03-16T17:12:04.709Z,2.70
2019-03-16T17:14:33.603Z,2.53
2019-03-16T17:17:02.506Z,3.30
2019-03-16T17:19:31.334Z,3.80
2019-03-16T17:22:00.198Z,2.17
2019-03-16T17:24:29.035Z,2.83
2019-03-16T17:26:57.928Z,2.50
2019-03-16T17:29:26.852Z,2.90
2019-03-16T17:31:55.720Z,2.87
2019-03-16T17:34:24.571Z,2.63
2019-03-16T17:36:53.467Z,3.43
2019-03-16T17:39:22.391Z,2.90
2019-03-16T17:41:51.277Z,3.60
2019-03-16T17:44:20.274Z,3.40
2019-03-16T17:46:49.375Z,3.03
2019-03-16T17:49:18.374Z,2.70
2019-03-16T17:51:47.208Z,2.60
2019-03-16T17:54:16.241Z,3.13
2019-03-16T17:56:45.174Z,3.60
2019-03-16T17:59:14.094Z,3.37
2019-03-16T18:01:54.210Z,3.83
2019-03-16T18:04:13.722Z,2.90
2019-03-16T18:06:42.562Z,2.97
2019-03-16T18:09:11.504Z,3.20
2019-03-16T18:11:40.340Z,3.17
2019-03-16T18:14:09.271Z,3.00
2019-03-16T18:16:38.193Z,2.70
2019-03-16T18:19:07.198Z,3.70
2019-03-16T18:21:36.046Z,3.30
2019-03-16T18:24:05.066Z,3.67
2019-03-16T18:26:33.902Z,3.33
2019-03-16T18:29:02.721Z,3.20
2019-03-16T18:31:31.575Z,2.53
2019-03-16T18:34:00.491Z,2.80
2019-03-16T18:36:29.481Z,2.90
2019-03-16T18:38:58.515Z,3.13
2019-03-16T18:41:27.339Z,3.27
2019-03-16T18:43:56.166Z,2.93
2019-03-16T18:46:25.017Z,2.87
2019-03-16T18:48:53.866Z,3.70
2019-03-16T18:51:22.834Z,3.50
2019-03-16T18:53:51.670Z,3.07
2019-03-16T18:56:20.562Z,2.50
2019-03-16T18:58:49.426Z,3.33
2019-03-16T19:01:18.480Z,3.33
2019-03-16T19:03:47.305Z,2.87
2019-03-16T19:06:16.128Z,3.07
2019-03-16T19:08:44.950Z,3.17
2019-03-16T19:11:13.905Z,3.07
2019-03-16T19:13:42.890Z,3.17
2019-03-16T19:16:11.726Z,3.40
2019-03-16T19:18:40.693Z,4.23
2019-03-16T19:21:09.699Z,3.90
2019-03-16T19:23:38.552Z,3.40
2019-03-16T19:26:07.464Z,2.80
2019-03-16T19:28:36.404Z,3.80
2019-03-16T19:31:05.406Z,2.77
2019-03-16T19:33:34.527Z,3.37
2019-03-16T19:36:03.374Z,3.13
2019-03-16T19:38:32.181Z,3.40
2019-03-16T19:41:01.045Z,3.60
2019-03-16T19:43:29.898Z,4.00
2019-03-16T19:46:00.594Z,3.83
2019-03-16T19:48:29.486Z,3.77
2019-03-16T19:50:58.475Z,4.57
2019-03-16T19:53:27.344Z,2.83
2019-03-16T19:55:56.258Z,3.40
2019-03-16T19:58:25.369Z,3.50
2019-03-16T20:00:54.277Z,4.40
2019-03-16T20:03:23.253Z,3.57
2019-03-16T20:05:52.093Z,3.07
2019-03-16T20:08:20.965Z,3.00
2019-03-16T20:10:49.798Z,3.93
2019-03-16T20:13:18.689Z,3.40
2019-03-16T20:15:47.537Z,3.83
2019-03-16T20:18:16.394Z,3.50
2019-03-16T20:20:45.474Z,3.30
2019-03-16T20:23:14.306Z,2.93
2019-03-16T20:25:43.158Z,3.33
2019-03-16T20:28:12.146Z,3.47
2019-03-16T20:30:40.967Z,3.67
2019-03-16T20:33:09.949Z,3.87
2019-03-16T20:35:38.953Z,3.77
2019-03-16T20:38:07.854Z,3.47
2019-03-16T20:40:36.829Z,4.10
2019-03-16T20:43:05.899Z,3.27
2019-03-16T20:45:35.285Z,3.03
2019-03-16T20:48:04.467Z,3.27
2019-03-16T20:50:33.361Z,3.80
2019-03-16T20:53:02.214Z,3.20
2019-03-16T20:55:31.056Z,3.30
2019-03-16T20:57:59.974Z,4.60
2019-03-16T21:00:29.259Z,3.97
2019-03-16T21:02:58.076Z,3.30
2019-03-16T21:05:26.961Z,3.67
2019-03-16T21:07:55.965Z,2.97
2019-03-16T21:10:24.846Z,4.23
2019-03-16T21:12:53.927Z,3.23
2019-03-16T21:15:22.859Z,3.10
2019-03-16T21:17:51.789Z,3.10
2019-03-16T21:20:20.740Z,4.20
2019-03-16T21:22:49.759Z,4.07
2019-03-16T21:25:18.820Z,4.03
2019-03-16T21:27:47.726Z,4.27
2019-03-16T21:30:16.707Z,3.77
2019-03-16T21:32:45.671Z,3.60
2019-03-16T21:35:14.569Z,3.50
2019-03-16T21:37:43.543Z,4.07
2019-03-16T21:40:12.579Z,4.10
2019-03-16T21:42:41.549Z,3.30
2019-03-16T21:45:10.533Z,3.07
2019-03-16T21:47:39.520Z,3.33
2019-03-16T21:50:09.167Z,3.60
2019-03-16T21:52:38.146Z,3.93
2019-03-16T21:55:07.645Z,3.60
2019-03-16T21:57:36.813Z,3.10
2019-03-16T22:00:07.544Z,3.30
2019-03-16T22:02:36.457Z,3.57
2019-03-16T22:05:05.990Z,3.10
2019-03-16T22:07:34.821Z,3.27
2019-03-16T22:10:04.343Z,3.63
2019-03-16T22:12:33.225Z,3.70
2019-03-16T22:15:02.066Z,2.77
2019-03-16T22:17:30.916Z,4.00
2019-03-16T22:19:59.784Z,3.60
2019-03-16T22:22:28.755Z,3.50
2019-03-16T22:24:57.593Z,3.33
2019-03-16T22:27:26.457Z,3.47
2019-03-16T22:29:55.288Z,3.30
2019-03-16T22:32:24.299Z,3.20
2019-03-16T22:34:53.174Z,3.83
2019-03-16T22:37:22.163Z,3.30
2019-03-16T22:39:51.070Z,4.20
2019-03-16T22:42:19.890Z,3.80
2019-03-16T22:44:48.944Z,3.40
2019-03-16T22:47:17.754Z,4.17
2019-03-16T22:49:46.676Z,2.90
2019-03-16T22:52:15.578Z,3.40
2019-03-16T22:54:44.397Z,3.73
2019-03-16T22:57:13.267Z,3.20
2019-03-16T22:59:42.129Z,3.20
2019-03-16T23:02:11.447Z,4.40
2019-03-16T23:04:40.252Z,3.60
2019-03-16T23:07:09.233Z,3.80
2019-03-16T23:09:38.259Z,3.57
2019-03-16T23:12:07.536Z,3.83
2019-03-16T23:14:36.574Z,3.47
2019-03-16T23:17:05.578Z,3.30
2019-03-16T23:19:34.529Z,3.40
2019-03-16T23:22:03.545Z,2.87
2019-03-16T23:24:32.400Z,4.53
2019-03-16T23:27:01.526Z,3.43
2019-03-16T23:29:30.475Z,3.60
2019-03-16T23:31:59.372Z,3.63
2019-03-16T23:34:28.250Z,3.37
2019-03-16T23:36:57.303Z,3.00
2019-03-16T23:39:26.201Z,4.33
2019-03-16T23:41:55.263Z,3.50
2019-03-16T23:44:24.163Z,3.57
2019-03-16T23:46:53.006Z,2.57
2019-03-16T23:49:21.969Z,3.50
2019-03-16T23:51:50.838Z,3.40
2019-03-16T23:54:19.703Z,3.27
2019-03-16T23:56:48.568Z,3.67
2019-03-16T23:59:17.586Z,3.00
